Time;durP1;ratioP1;P1;durP2;ratioP2;P2;SDS_P1;SDS_P2;PMS_P1;PMS_P2;Temp;Humidity;BMP_temperature;BMP_pressure;BME280_temperature;BME280_humidity;BME280_pressure;Samples;Min_cycle;Max_cycle;Signal;HPM_P1;HPM_P2
2022/11/19 00:00:48;;;;;;;28.70;18.07;;;;;;;;;;5061626;28;20302;-65
2022/11/19 00:03:18;;;;;;;20.37;13.70;;;;;;;;;;5070941;28;20390;-65
2022/11/19 00:05:45;;;;;;;23.80;13.97;;;;;;;;;;5070701;28;20289;-65
2022/11/19 00:08:12;;;;;;;22.37;14.13;;;;;;;;;;5069492;28;20643;-65
2022/11/19 00:10:39;;;;;;;25.93;13.93;;;;;;;;;;5064795;28;20526;-65
2022/11/19 00:13:06;;;;;;;21.87;13.73;;;;;;;;;;5051742;28;20302;-65
2022/11/19 00:15:33;;;;;;;20.83;13.10;;;;;;;;;;5054337;28;20053;-65
2022/11/19 00:17:59;;;;;;;20.50;12.83;;;;;;;;;;5071495;28;20375;-65
2022/11/19 00:20:26;;;;;;;21.00;12.50;;;;;;;;;;5069756;28;20295;-65
2022/11/19 00:22:52;;;;;;;19.53;12.63;;;;;;;;;;5070757;28;20041;-64
2022/11/19 00:25:19;;;;;;;19.60;12.93;;;;;;;;;;5070204;28;20300;-65
2022/11/19 00:27:45;;;;;;;20.67;13.13;;;;;;;;;;5051006;28;20462;-64
2022/11/19 00:30:11;;;;;;;19.63;12.10;;;;;;;;;;5069903;28;20047;-65
2022/11/19 00:32:37;;;;;;;20.30;12.60;;;;;;;;;;5053036;28;20040;-65
2022/11/19 00:35:04;;;;;;;21.03;13.33;;;;;;;;;;5062404;28;20122;-65
2022/11/19 00:37:30;;;;;;;21.10;13.10;;;;;;;;;;5061339;28;20041;-65
2022/11/19 00:39:56;;;;;;;18.60;11.10;;;;;;;;;;5069443;28;20294;-65
2022/11/19 00:42:22;;;;;;;20.17;12.40;;;;;;;;;;5064193;28;20299;-65
2022/11/19 00:44:48;;;;;;;19.00;12.07;;;;;;;;;;5052917;28;20040;-65
2022/11/19 00:47:15;;;;;;;18.27;11.90;;;;;;;;;;5064617;28;20045;-65
2022/11/19 00:49:41;;;;;;;21.07;12.87;;;;;;;;;;5055993;28;20056;-65
2022/11/19 00:52:07;;;;;;;19.33;12.43;;;;;;;;;;5047567;28;20041;-65
2022/11/19 00:54:33;;;;;;;21.87;12.07;;;;;;;;;;5050964;28;20330;-65
2022/11/19 00:56:59;;;;;;;18.97;11.97;;;;;;;;;;5050905;28;20037;-64
2022/11/19 00:59:25;;;;;;;19.70;12.47;;;;;;;;;;5055713;28;21214;-65
2022/11/19 01:01:51;;;;;;;16.83;11.80;;;;;;;;;;5065668;28;20045;-65
2022/11/19 01:04:17;;;;;;;17.37;10.80;;;;;;;;;;5051028;28;20558;-64
2022/11/19 01:06:43;;;;;;;22.27;11.33;;;;;;;;;;5062307;28;20052;-65
2022/11/19 01:09:09;;;;;;;17.57;10.60;;;;;;;;;;5061465;28;20514;-65
2022/11/19 01:11:36;;;;;;;16.27;10.23;;;;;;;;;;5051244;28;20291;-64
2022/11/19 01:14:03;;;;;;;15.67;10.53;;;;;;;;;;5066492;28;20322;-65
2022/11/19 01:16:36;;;;;;;13.87;9.90;;;;;;;;;;5070366;28;20310;-64
2022/11/19 01:19:03;;;;;;;15.88;10.50;;;;;;;;;;5068658;28;20879;-65
2022/11/19 01:21:30;;;;;;;15.30;9.60;;;;;;;;;;5069822;28;20051;-64
2022/11/19 01:23:57;;;;;;;15.13;9.27;;;;;;;;;;5070071;28;20290;-65
2022/11/19 01:26:23;;;;;;;14.30;8.53;;;;;;;;;;5062008;28;20295;-65
2022/11/19 01:28:49;;;;;;;12.70;8.47;;;;;;;;;;5050265;28;20315;-65
2022/11/19 01:31:17;;;;;;;12.67;7.93;;;;;;;;;;5052396;28;20298;-65
2022/11/19 01:33:43;;;;;;;15.20;9.07;;;;;;;;;;5069154;28;20784;-65
2022/11/19 01:36:16;;;;;;;14.63;8.40;;;;;;;;;;5050100;28;20320;-64
2022/11/19 01:38:42;;;;;;;14.20;7.30;;;;;;;;;;5050310;28;20079;-64
2022/11/19 01:41:09;;;;;;;10.10;6.87;;;;;;;;;;5065674;28;20634;-65
2022/11/19 01:43:39;;;;;;;11.63;7.57;;;;;;;;;;5051193;28;20291;-64
2022/11/19 01:46:05;;;;;;;12.60;7.40;;;;;;;;;;5057976;28;20294;-64
2022/11/19 01:48:32;;;;;;;12.73;7.53;;;;;;;;;;5059005;28;20296;-64
2022/11/19 01:51:18;;;;;;;10.00;6.50;;;;;;;;;;5058143;28;20292;-64
2022/11/19 01:53:45;;;;;;;10.80;6.10;;;;;;;;;;5049153;28;20296;-64
2022/11/19 01:56:11;;;;;;;9.97;5.93;;;;;;;;;;5049568;28;20654;-65
2022/11/19 01:58:40;;;;;;;10.67;6.40;;;;;;;;;;5051775;28;20302;-64
2022/11/19 02:01:07;;;;;;;8.10;4.70;;;;;;;;;;5055707;28;20299;-64
2022/11/19 02:03:33;;;;;;;10.70;5.80;;;;;;;;;;5070028;28;20140;-65
2022/11/19 02:06:01;;;;;;;9.57;6.00;;;;;;;;;;5061776;28;20307;-65
2022/11/19 02:08:36;;;;;;;9.47;5.77;;;;;;;;;;5052374;28;20322;-65
2022/11/19 02:11:02;;;;;;;9.67;5.50;;;;;;;;;;5059507;28;20048;-65
2022/11/19 02:13:28;;;;;;;19.93;5.90;;;;;;;;;;5048644;28;20056;-64
2022/11/19 02:16:00;;;;;;;8.53;5.47;;;;;;;;;;5049552;28;20041;-65
2022/11/19 02:18:35;;;;;;;9.27;5.37;;;;;;;;;;5049437;28;20044;-64
2022/11/19 02:21:05;;;;;;;8.00;5.23;;;;;;;;;;5048968;28;20107;-64
2022/11/19 02:23:50;;;;;;;7.97;5.00;;;;;;;;;;5048716;28;20350;-64
2022/11/19 02:26:38;;;;;;;9.80;5.33;;;;;;;;;;5049642;28;20680;-64
2022/11/19 02:29:15;;;;;;;8.50;4.97;;;;;;;;;;5047869;28;20724;-64
2022/11/19 02:31:48;;;;;;;9.67;5.00;;;;;;;;;;5054344;28;20327;-65
2022/11/19 02:34:23;;;;;;;9.25;5.45;;;;;;;;;;5068717;28;20302;-64
2022/11/19 02:37:02;;;;;;;7.73;4.47;;;;;;;;;;5061706;28;20076;-64
2022/11/19 02:39:29;;;;;;;10.70;5.63;;;;;;;;;;5051713;28;20302;-64
2022/11/19 02:42:01;;;;;;;6.93;4.67;;;;;;;;;;5064410;28;21305;-64
2022/11/19 02:44:58;;;;;;;7.10;4.00;;;;;;;;;;5048654;28;20299;-64
2022/11/19 02:47:42;;;;;;;7.87;4.83;;;;;;;;;;5061240;28;20296;-64
2022/11/19 02:50:13;;;;;;;7.57;4.33;;;;;;;;;;5067295;28;20890;-64
2022/11/19 02:52:39;;;;;;;9.80;5.50;;;;;;;;;;5068208;28;20179;-64
2022/11/19 02:55:06;;;;;;;9.83;5.53;;;;;;;;;;5068328;28;20305;-64
2022/11/19 02:57:32;;;;;;;9.60;5.27;;;;;;;;;;5048762;28;20295;-64
2022/11/19 03:06:01;;;;;;;9.57;5.20;;;;;;;;;;5055429;28;20298;-64
2022/11/19 03:08:28;;;;;;;8.80;4.90;;;;;;;;;;5068403;28;20344;-63
2022/11/19 03:10:54;;;;;;;7.27;4.63;;;;;;;;;;5062122;28;20345;-63
2022/11/19 03:19:07;;;;;;;7.70;4.73;;;;;;;;;;5066719;28;20294;-63
2022/11/19 03:21:36;;;;;;;8.50;5.07;;;;;;;;;;5056091;28;20295;-63
2022/11/19 03:24:05;;;;;;;9.77;5.47;;;;;;;;;;5060261;28;20290;-63
2022/11/19 03:26:31;;;;;;;8.83;4.50;;;;;;;;;;5048741;28;20283;-63
2022/11/19 03:28:59;;;;;;;7.93;4.60;;;;;;;;;;5048460;28;20346;-63
2022/11/19 03:31:26;;;;;;;8.20;5.23;;;;;;;;;;5065065;28;20792;-63
2022/11/19 03:33:53;;;;;;;8.33;5.57;;;;;;;;;;5047250;28;20349;-63
2022/11/19 03:36:23;;;;;;;9.07;5.40;;;;;;;;;;5052423;28;20947;-63
2022/11/19 03:38:52;;;;;;;10.47;5.77;;;;;;;;;;5048571;28;20378;-63
2022/11/19 03:41:20;;;;;;;8.60;5.57;;;;;;;;;;5064089;28;20800;-63
2022/11/19 03:43:48;;;;;;;9.83;6.07;;;;;;;;;;5047893;28;20299;-63
2022/11/19 03:46:15;;;;;;;9.53;5.73;;;;;;;;;;5065285;28;20326;-63
2022/11/19 03:48:44;;;;;;;11.60;6.13;;;;;;;;;;5060955;28;20923;-63
2022/11/19 03:51:15;;;;;;;9.23;5.60;;;;;;;;;;5068108;28;20291;-63
2022/11/19 03:53:41;;;;;;;9.67;5.77;;;;;;;;;;5056088;28;20313;-63
2022/11/19 03:56:09;;;;;;;9.83;6.50;;;;;;;;;;5048155;28;20307;-63
2022/11/19 03:58:39;;;;;;;11.40;5.80;;;;;;;;;;5048630;28;20291;-63
2022/11/19 04:01:06;;;;;;;8.83;5.60;;;;;;;;;;5051429;28;20330;-63
2022/11/19 04:03:32;;;;;;;10.60;6.97;;;;;;;;;;5048758;28;20645;-63
2022/11/19 04:05:58;;;;;;;12.97;6.23;;;;;;;;;;5048049;28;20287;-63
2022/11/19 04:08:24;;;;;;;9.07;6.03;;;;;;;;;;5048284;28;20048;-63
2022/11/19 04:10:50;;;;;;;8.97;5.07;;;;;;;;;;5048669;28;20345;-63
2022/11/19 04:13:16;;;;;;;8.40;5.23;;;;;;;;;;5047472;28;20303;-62
2022/11/19 04:15:42;;;;;;;8.67;5.00;;;;;;;;;;5047875;28;20311;-62
2022/11/19 04:18:08;;;;;;;10.43;5.90;;;;;;;;;;5050135;28;20310;-63
2022/11/19 04:20:34;;;;;;;10.40;5.30;;;;;;;;;;5064045;28;20292;-63
2022/11/19 04:23:00;;;;;;;10.20;5.30;;;;;;;;;;5049007;28;20298;-63
2022/11/19 04:25:26;;;;;;;9.07;5.70;;;;;;;;;;5050292;28;20327;-63
2022/11/19 04:27:52;;;;;;;10.50;5.60;;;;;;;;;;5051049;28;20650;-63
2022/11/19 04:30:18;;;;;;;11.17;5.50;;;;;;;;;;5051546;28;20361;-63
2022/11/19 04:32:44;;;;;;;9.40;5.57;;;;;;;;;;5057302;28;20803;-62
2022/11/19 04:35:11;;;;;;;11.43;6.20;;;;;;;;;;5070759;28;20409;-62
2022/11/19 04:37:37;;;;;;;11.17;7.43;;;;;;;;;;5070922;28;20041;-63
2022/11/19 04:40:03;;;;;;;12.23;6.43;;;;;;;;;;5069576;28;21581;-62
2022/11/19 04:42:29;;;;;;;10.33;5.70;;;;;;;;;;5060659;28;21007;-63
2022/11/19 04:44:55;;;;;;;10.20;5.70;;;;;;;;;;5051327;28;20280;-62
2022/11/19 04:47:21;;;;;;;8.03;5.17;;;;;;;;;;5053593;28;20360;-63
2022/11/19 04:49:47;;;;;;;9.00;5.13;;;;;;;;;;5067919;28;20674;-63
2022/11/19 04:52:13;;;;;;;14.20;6.30;;;;;;;;;;5070724;28;20298;-63
2022/11/19 04:54:39;;;;;;;8.97;5.17;;;;;;;;;;5069613;28;20305;-63
2022/11/19 04:57:05;;;;;;;9.50;4.67;;;;;;;;;;5063304;28;20052;-63
2022/11/19 04:59:31;;;;;;;10.43;6.07;;;;;;;;;;5070547;28;20290;-63
2022/11/19 05:01:57;;;;;;;11.50;5.87;;;;;;;;;;5054977;28;20306;-63
2022/11/19 05:04:23;;;;;;;10.20;5.47;;;;;;;;;;5050325;28;20095;-63
2022/11/19 05:06:49;;;;;;;9.57;6.07;;;;;;;;;;5051170;28;20302;-63
2022/11/19 05:09:15;;;;;;;10.30;5.07;;;;;;;;;;5050454;28;20789;-63
2022/11/19 05:11:41;;;;;;;12.47;6.07;;;;;;;;;;5064495;28;20287;-63
2022/11/19 05:14:08;;;;;;;10.60;5.97;;;;;;;;;;5050447;28;20300;-63
2022/11/19 05:16:34;;;;;;;8.27;5.20;;;;;;;;;;5050636;28;20308;-63
2022/11/19 05:19:00;;;;;;;9.73;5.00;;;;;;;;;;5051326;28;20292;-63
2022/11/19 05:21:26;;;;;;;9.20;5.73;;;;;;;;;;5050720;28;20322;-63
2022/11/19 05:23:52;;;;;;;9.73;5.40;;;;;;;;;;5065307;28;20389;-63
2022/11/19 05:26:18;;;;;;;10.47;6.30;;;;;;;;;;5069445;28;20305;-63
2022/11/19 05:28:45;;;;;;;10.30;5.63;;;;;;;;;;5060770;28;20694;-63
2022/11/19 05:31:11;;;;;;;7.77;4.97;;;;;;;;;;5035424;28;20345;-63
2022/11/19 05:33:37;;;;;;;8.40;5.40;;;;;;;;;;5050378;28;20295;-63
2022/11/19 05:36:03;;;;;;;13.10;6.00;;;;;;;;;;5050923;28;20855;-63
2022/11/19 05:38:29;;;;;;;9.73;5.20;;;;;;;;;;5050754;28;20294;-63
2022/11/19 05:40:55;;;;;;;9.83;5.17;;;;;;;;;;5064927;28;20800;-63
2022/11/19 05:43:21;;;;;;;11.50;6.40;;;;;;;;;;5051408;28;20669;-63
2022/11/19 05:45:47;;;;;;;9.13;5.40;;;;;;;;;;5066831;28;20294;-63
2022/11/19 05:48:13;;;;;;;12.67;6.67;;;;;;;;;;5070066;28;20378;-63
2022/11/19 05:50:41;;;;;;;11.40;5.50;;;;;;;;;;5067204;28;20731;-63
2022/11/19 05:53:07;;;;;;;10.57;6.03;;;;;;;;;;5069279;28;20078;-63
2022/11/19 05:55:33;;;;;;;10.53;5.97;;;;;;;;;;5069331;28;20656;-63
2022/11/19 05:57:59;;;;;;;10.73;6.17;;;;;;;;;;5067854;28;20356;-63
2022/11/19 06:00:25;;;;;;;11.23;5.57;;;;;;;;;;5048957;28;20306;-63
2022/11/19 06:02:51;;;;;;;10.73;6.47;;;;;;;;;;5049825;28;20295;-63
2022/11/19 06:05:18;;;;;;;10.50;6.10;;;;;;;;;;5050484;28;20300;-63
2022/11/19 06:07:44;;;;;;;11.00;6.10;;;;;;;;;;5049515;28;20287;-63
2022/11/19 06:10:10;;;;;;;12.17;6.73;;;;;;;;;;5048963;28;20793;-63
2022/11/19 06:12:36;;;;;;;10.87;6.33;;;;;;;;;;5050250;28;20348;-63
2022/11/19 06:15:02;;;;;;;10.70;6.10;;;;;;;;;;5050300;28;20753;-63
2022/11/19 06:17:28;;;;;;;11.57;6.57;;;;;;;;;;5049121;28;21057;-63
2022/11/19 06:19:54;;;;;;;15.03;7.37;;;;;;;;;;5067261;28;20298;-63
2022/11/19 06:22:20;;;;;;;13.73;7.50;;;;;;;;;;5057984;28;20292;-63
2022/11/19 06:24:46;;;;;;;13.93;7.83;;;;;;;;;;5049084;28;20288;-63
2022/11/19 06:27:12;;;;;;;12.87;6.77;;;;;;;;;;5052569;28;20946;-63
2022/11/19 06:29:39;;;;;;;13.30;7.53;;;;;;;;;;5060939;28;20344;-63
2022/11/19 06:32:05;;;;;;;13.50;7.03;;;;;;;;;;5059782;28;20919;-63
2022/11/19 06:34:31;;;;;;;13.57;7.93;;;;;;;;;;5048855;28;20283;-63
2022/11/19 06:36:57;;;;;;;12.87;6.70;;;;;;;;;;5065363;28;20314;-63
2022/11/19 06:39:23;;;;;;;13.00;7.97;;;;;;;;;;5067351;28;20378;-63
2022/11/19 06:41:50;;;;;;;15.73;7.87;;;;;;;;;;5062344;28;20288;-63
2022/11/19 06:44:16;;;;;;;12.87;6.63;;;;;;;;;;5048976;28;20295;-63
2022/11/19 06:46:42;;;;;;;13.30;8.03;;;;;;;;;;5049234;28;20291;-63
2022/11/19 06:49:08;;;;;;;12.50;7.70;;;;;;;;;;5056345;28;20302;-64
2022/11/19 06:51:35;;;;;;;14.43;7.80;;;;;;;;;;5055257;28;20329;-64
2022/11/19 06:54:01;;;;;;;13.73;8.17;;;;;;;;;;5048898;28;20820;-64
2022/11/19 06:56:27;;;;;;;13.93;8.53;;;;;;;;;;5062916;28;20319;-63
2022/11/19 06:58:57;;;;;;;16.43;8.93;;;;;;;;;;5052376;28;20328;-63
2022/11/19 07:01:23;;;;;;;15.33;8.20;;;;;;;;;;5048976;28;21015;-62
2022/11/19 07:03:49;;;;;;;16.27;8.43;;;;;;;;;;5049247;28;20291;-63
2022/11/19 07:06:15;;;;;;;18.87;8.97;;;;;;;;;;5048285;28;20294;-63
2022/11/19 07:08:41;;;;;;;16.23;8.93;;;;;;;;;;5059726;28;20292;-63
2022/11/19 07:11:25;;;;;;;16.83;8.90;;;;;;;;;;5052410;28;20295;-63
2022/11/19 07:13:58;;;;;;;21.53;8.37;;;;;;;;;;5047793;28;20303;-63
2022/11/19 07:16:31;;;;;;;16.70;8.93;;;;;;;;;;5048369;28;20319;-63
2022/11/19 07:18:58;;;;;;;17.60;9.65;;;;;;;;;;5048351;28;20068;-64
2022/11/19 07:21:25;;;;;;;16.70;9.23;;;;;;;;;;5048152;28;20053;-64
2022/11/19 07:23:51;;;;;;;14.53;8.13;;;;;;;;;;5048616;28;20292;-63
2022/11/19 07:26:17;;;;;;;17.57;10.07;;;;;;;;;;5059039;28;20373;-63
2022/11/19 07:28:43;;;;;;;19.27;10.73;;;;;;;;;;5068141;28;20351;-63
2022/11/19 07:31:09;;;;;;;20.10;9.63;;;;;;;;;;5065744;28;20327;-63
2022/11/19 07:33:38;;;;;;;17.50;10.00;;;;;;;;;;5052095;28;21141;-63
2022/11/19 07:36:04;;;;;;;18.43;9.77;;;;;;;;;;5047483;28;20319;-63
2022/11/19 07:38:30;;;;;;;15.20;9.40;;;;;;;;;;5046274;28;20738;-63
2022/11/19 07:40:56;;;;;;;16.60;10.00;;;;;;;;;;5049825;28;20344;-63
2022/11/19 07:43:23;;;;;;;15.77;9.67;;;;;;;;;;5047578;28;20852;-63
2022/11/19 07:45:49;;;;;;;16.20;8.40;;;;;;;;;;5047644;28;20353;-63
2022/11/19 07:48:15;;;;;;;19.13;10.03;;;;;;;;;;5047307;28;20276;-63
2022/11/19 07:50:41;;;;;;;19.60;9.50;;;;;;;;;;5050172;28;20286;-63
2022/11/19 07:53:08;;;;;;;15.17;8.47;;;;;;;;;;5067796;28;20283;-64
2022/11/19 07:55:34;;;;;;;18.33;9.87;;;;;;;;;;5067502;28;20310;-64
2022/11/19 07:58:00;;;;;;;15.43;8.60;;;;;;;;;;5066454;28;20285;-64
2022/11/19 08:00:26;;;;;;;20.20;10.87;;;;;;;;;;5069890;28;20800;-64
2022/11/19 08:02:52;;;;;;;16.50;7.97;;;;;;;;;;5070428;28;20282;-64
2022/11/19 08:05:18;;;;;;;17.77;9.57;;;;;;;;;;5071359;28;20324;-64
2022/11/19 08:07:44;;;;;;;16.67;9.17;;;;;;;;;;5053860;28;20294;-64
2022/11/19 08:10:11;;;;;;;17.23;9.10;;;;;;;;;;5069566;28;20287;-64
2022/11/19 08:12:37;;;;;;;16.77;9.93;;;;;;;;;;5069600;28;20356;-64
2022/11/19 08:15:03;;;;;;;17.53;9.50;;;;;;;;;;5071095;28;20303;-64
2022/11/19 08:20:17;;;;;;;17.00;9.67;;;;;;;;;;5069988;28;20295;-64
2022/11/19 08:22:43;;;;;;;18.87;10.50;;;;;;;;;;5071174;28;20305;-64
2022/11/19 08:25:10;;;;;;;18.70;9.57;;;;;;;;;;5069590;28;20295;-64
2022/11/19 08:27:36;;;;;;;16.67;10.10;;;;;;;;;;5070551;28;20291;-64
2022/11/19 08:30:02;;;;;;;14.90;9.37;;;;;;;;;;5069649;28;20339;-64
2022/11/19 08:32:28;;;;;;;17.40;10.50;;;;;;;;;;5069425;28;20384;-64
2022/11/19 08:34:54;;;;;;;17.87;9.57;;;;;;;;;;5070716;28;20283;-64
2022/11/19 08:37:20;;;;;;;15.47;9.20;;;;;;;;;;5070409;28;20298;-64
2022/11/19 08:39:46;;;;;;;13.50;8.30;;;;;;;;;;5070911;28;20279;-64
2022/11/19 08:44:57;;;;;;;13.23;8.53;;;;;;;;;;5070273;28;20287;-64
2022/11/19 08:47:23;;;;;;;15.77;8.53;;;;;;;;;;5071094;28;20310;-64
2022/11/19 08:49:49;;;;;;;14.97;8.27;;;;;;;;;;5069658;28;20291;-64
2022/11/19 08:52:15;;;;;;;11.87;6.80;;;;;;;;;;5069695;28;20292;-64
2022/11/19 08:54:41;;;;;;;14.33;8.60;;;;;;;;;;5071344;28;20298;-64
2022/11/19 08:57:07;;;;;;;13.97;8.77;;;;;;;;;;5068164;28;20287;-64
2022/11/19 08:59:33;;;;;;;13.37;8.23;;;;;;;;;;5070807;28;20286;-64
2022/11/19 09:02:00;;;;;;;10.97;7.33;;;;;;;;;;5070603;28;20310;-64
2022/11/19 09:04:26;;;;;;;13.43;7.97;;;;;;;;;;5069586;28;20297;-64
2022/11/19 09:06:52;;;;;;;13.10;7.50;;;;;;;;;;5071126;28;20665;-64
2022/11/19 09:09:18;;;;;;;12.53;7.27;;;;;;;;;;5071121;28;20279;-64
2022/11/19 09:11:45;;;;;;;13.83;7.70;;;;;;;;;;5070607;28;20295;-64
2022/11/19 09:14:11;;;;;;;14.43;8.13;;;;;;;;;;5070025;28;20302;-64
2022/11/19 09:16:37;;;;;;;11.57;6.73;;;;;;;;;;5071110;28;20293;-64
2022/11/19 09:19:03;;;;;;;12.40;7.30;;;;;;;;;;5071133;28;20347;-64
2022/11/19 09:21:29;;;;;;;13.43;7.63;;;;;;;;;;5070807;28;20291;-64
2022/11/19 09:23:55;;;;;;;13.50;7.23;;;;;;;;;;5070559;28;20291;-64
2022/11/19 09:26:21;;;;;;;11.63;7.60;;;;;;;;;;5067286;28;20052;-64
2022/11/19 09:28:48;;;;;;;10.63;6.80;;;;;;;;;;5068303;28;21028;-64
2022/11/19 09:31:16;;;;;;;12.83;7.17;;;;;;;;;;5069348;28;20287;-64
2022/11/19 09:33:43;;;;;;;10.13;6.77;;;;;;;;;;5065979;28;20370;-64
2022/11/19 09:36:10;;;;;;;11.50;7.40;;;;;;;;;;5069374;28;20772;-64
2022/11/19 09:38:36;;;;;;;12.17;7.73;;;;;;;;;;5068997;28;20691;-62
2022/11/19 09:41:22;;;;;;;10.17;6.73;;;;;;;;;;5065292;28;20291;-62
2022/11/19 09:44:04;;;;;;;12.53;6.53;;;;;;;;;;5045941;28;20287;-62
2022/11/19 09:46:48;;;;;;;8.60;6.10;;;;;;;;;;5067575;28;20314;-62
2022/11/19 09:49:24;;;;;;;8.20;5.73;;;;;;;;;;5066877;28;20805;-63
2022/11/19 09:51:54;;;;;;;7.70;5.67;;;;;;;;;;5065941;28;21154;-62
2022/11/19 09:54:20;;;;;;;10.00;6.53;;;;;;;;;;5065294;28;20322;-63
2022/11/19 09:56:48;;;;;;;8.17;5.67;;;;;;;;;;5069282;28;20374;-63
2022/11/19 09:59:38;;;;;;;9.53;6.23;;;;;;;;;;5069566;28;20320;-63
2022/11/19 10:02:16;;;;;;;7.77;5.10;;;;;;;;;;5069738;28;20415;-63
2022/11/19 10:04:42;;;;;;;9.13;5.97;;;;;;;;;;5068466;28;20052;-63
2022/11/19 10:07:11;;;;;;;8.83;5.80;;;;;;;;;;5070240;28;20502;-63
2022/11/19 10:09:44;;;;;;;7.60;5.63;;;;;;;;;;5070093;28;20098;-63
2022/11/19 10:12:10;;;;;;;9.18;5.88;;;;;;;;;;5069967;28;20071;-63
2022/11/19 10:14:55;;;;;;;8.30;6.03;;;;;;;;;;5069706;28;20064;-63
2022/11/19 10:17:22;;;;;;;9.60;6.40;;;;;;;;;;5070166;28;20045;-63
2022/11/19 10:20:09;;;;;;;9.13;5.93;;;;;;;;;;5069352;28;20052;-64
2022/11/19 10:22:53;;;;;;;8.83;5.40;;;;;;;;;;5068680;28;20518;-63
2022/11/19 10:25:25;;;;;;;7.73;5.83;;;;;;;;;;5069696;28;20487;-63
2022/11/19 10:27:56;;;;;;;8.37;6.17;;;;;;;;;;5069264;28;20059;-63
2022/11/19 10:30:23;;;;;;;6.90;4.93;;;;;;;;;;5069002;28;20044;-63
2022/11/19 10:32:58;;;;;;;7.93;5.47;;;;;;;;;;5067862;28;20041;-63
2022/11/19 10:35:30;;;;;;;6.87;5.50;;;;;;;;;;5069121;28;20529;-63
2022/11/19 10:38:01;;;;;;;7.93;5.27;;;;;;;;;;5068637;28;20524;-64
2022/11/19 10:40:49;;;;;;;10.50;5.87;;;;;;;;;;5068625;28;20552;-63
2022/11/19 10:43:24;;;;;;;8.57;6.23;;;;;;;;;;5068800;28;20529;-64
2022/11/19 10:45:50;;;;;;;8.50;5.30;;;;;;;;;;5068721;28;20048;-63
2022/11/19 10:48:33;;;;;;;8.90;6.10;;;;;;;;;;5067729;28;20040;-64
2022/11/19 10:50:59;;;;;;;10.87;6.73;;;;;;;;;;5069207;28;20537;-64
2022/11/19 10:53:28;;;;;;;9.40;6.27;;;;;;;;;;5068985;28;20072;-63
2022/11/19 10:56:02;;;;;;;12.27;7.80;;;;;;;;;;5069281;28;20048;-63
2022/11/19 10:58:31;;;;;;;13.10;7.70;;;;;;;;;;5068107;28;20525;-63
2022/11/19 11:00:59;;;;;;;8.73;5.67;;;;;;;;;;5067501;28;20044;-63
2022/11/19 11:03:28;;;;;;;7.77;5.23;;;;;;;;;;5069360;28;20055;-63
2022/11/19 11:06:00;;;;;;;8.13;5.13;;;;;;;;;;5068399;28;20564;-64
2022/11/19 11:08:26;;;;;;;7.27;5.23;;;;;;;;;;5068954;28;20088;-63
2022/11/19 11:10:52;;;;;;;6.87;4.97;;;;;;;;;;5069060;28;20048;-63
2022/11/19 11:16:16;;;;;;;8.77;5.77;;;;;;;;;;5069047;28;20057;-63
2022/11/19 11:18:42;;;;;;;7.40;5.23;;;;;;;;;;5069036;28;20051;-63
2022/11/19 11:21:42;;;;;;;7.63;5.20;;;;;;;;;;5068823;28;20135;-63
2022/11/19 11:24:08;;;;;;;7.80;5.33;;;;;;;;;;5035051;28;20056;-63
2022/11/19 11:26:36;;;;;;;6.30;5.40;;;;;;;;;;5068316;28;20448;-64
2022/11/19 11:29:03;;;;;;;8.93;4.93;;;;;;;;;;5068453;28;20439;-64
2022/11/19 11:31:42;;;;;;;8.03;6.27;;;;;;;;;;5068825;28;20049;-64
2022/11/19 11:34:27;;;;;;;8.57;5.23;;;;;;;;;;5069687;28;20138;-63
2022/11/19 11:36:54;;;;;;;8.33;5.20;;;;;;;;;;5072850;28;20052;-63
2022/11/19 11:39:28;;;;;;;7.10;4.70;;;;;;;;;;5073343;28;20041;-63
2022/11/19 11:41:55;;;;;;;5.40;4.00;;;;;;;;;;5072783;28;20086;-64
2022/11/19 11:44:22;;;;;;;6.67;4.80;;;;;;;;;;5072608;28;20044;-63
2022/11/19 11:46:49;;;;;;;6.40;4.63;;;;;;;;;;5071118;28;20410;-64
2022/11/19 11:49:21;;;;;;;8.00;4.73;;;;;;;;;;5072175;28;20049;-64
2022/11/19 11:51:54;;;;;;;6.60;4.50;;;;;;;;;;5070438;28;20080;-63
2022/11/19 11:54:21;;;;;;;5.80;4.40;;;;;;;;;;5066217;28;20066;-64
2022/11/19 11:56:47;;;;;;;7.43;5.00;;;;;;;;;;5071226;28;20047;-64
2022/11/19 11:59:22;;;;;;;7.87;5.10;;;;;;;;;;5071539;28;20040;-64
2022/11/19 12:02:02;;;;;;;6.03;4.47;;;;;;;;;;5072143;28;20052;-64
2022/11/19 12:04:28;;;;;;;6.17;4.73;;;;;;;;;;5070808;28;20072;-64
2022/11/19 12:07:13;;;;;;;6.90;4.30;;;;;;;;;;5070165;28;20573;-64
2022/11/19 12:09:58;;;;;;;6.20;4.53;;;;;;;;;;5070324;28;20056;-64
2022/11/19 12:12:34;;;;;;;6.73;4.00;;;;;;;;;;5070362;28;20052;-63
2022/11/19 12:15:06;;;;;;;6.17;4.10;;;;;;;;;;5070079;28;20128;-63
2022/11/19 12:17:39;;;;;;;4.70;3.53;;;;;;;;;;5068617;28;20107;-63
2022/11/19 12:20:16;;;;;;;6.38;4.28;;;;;;;;;;5069634;28;20048;-63
2022/11/19 12:22:50;;;;;;;6.50;4.47;;;;;;;;;;5069181;28;20110;-64
2022/11/19 12:25:22;;;;;;;6.30;4.60;;;;;;;;;;5069148;28;20128;-63
2022/11/19 12:27:55;;;;;;;8.33;4.50;;;;;;;;;;5068066;28;20494;-63
2022/11/19 12:30:23;;;;;;;5.50;4.00;;;;;;;;;;5069403;28;20068;-63
2022/11/19 12:32:52;;;;;;;5.40;3.90;;;;;;;;;;5069517;28;20545;-63
2022/11/19 12:35:25;;;;;;;5.53;4.27;;;;;;;;;;5070849;28;20048;-63
2022/11/19 12:37:51;;;;;;;;;;;;;;;;;;5070240;28;20051;-63
2022/11/19 12:40:43;;;;;;;5.27;3.47;;;;;;;;;;5071194;28;19924;-63
2022/11/19 12:43:21;;;;;;;7.93;4.07;;;;;;;;;;5069890;28;20055;-63
2022/11/19 12:45:53;;;;;;;4.83;3.60;;;;;;;;;;5068651;28;20143;-63
2022/11/19 12:48:26;;;;;;;5.03;3.87;;;;;;;;;;5069706;28;20080;-63
2022/11/19 12:51:08;;;;;;;4.35;3.53;;;;;;;;;;5071306;28;20056;-63
2022/11/19 12:53:52;;;;;;;4.87;3.30;;;;;;;;;;5071074;28;20109;-63
2022/11/19 12:56:34;;;;;;;3.83;3.13;;;;;;;;;;5069349;28;20052;-63
2022/11/19 12:59:16;;;;;;;5.33;3.93;;;;;;;;;;5070279;28;20055;-62
2022/11/19 13:01:44;;;;;;;6.03;3.70;;;;;;;;;;5070634;28;20130;-62
2022/11/19 13:04:23;;;;;;;6.00;4.00;;;;;;;;;;5070925;28;20105;-62
2022/11/19 13:06:55;;;;;;;5.63;3.70;;;;;;;;;;5070427;28;20040;-62
2022/11/19 13:09:27;;;;;;;4.20;3.57;;;;;;;;;;5069255;28;20052;-62
2022/11/19 13:11:56;;;;;;;4.87;4.00;;;;;;;;;;5070732;28;20109;-62
2022/11/19 13:14:45;;;;;;;4.83;3.47;;;;;;;;;;5069974;28;20171;-62
2022/11/19 13:17:20;;;;;;;5.33;3.50;;;;;;;;;;5059755;28;20131;-62
2022/11/19 13:19:49;;;;;;;5.50;3.67;;;;;;;;;;5068693;28;20054;-62
2022/11/19 13:22:17;;;;;;;5.53;3.83;;;;;;;;;;5067323;28;20040;-62
2022/11/19 13:24:49;;;;;;;4.90;3.43;;;;;;;;;;5069640;28;20240;-62
2022/11/19 13:27:18;;;;;;;4.60;3.40;;;;;;;;;;5069932;28;20418;-62
2022/11/19 13:29:47;;;;;;;5.03;3.37;;;;;;;;;;5070060;28;20454;-62
2022/11/19 13:32:17;;;;;;;5.80;4.23;;;;;;;;;;5070035;28;20044;-62
2022/11/19 13:35:02;;;;;;;5.10;3.50;;;;;;;;;;5068393;28;20138;-61
2022/11/19 13:37:46;;;;;;;5.50;3.80;;;;;;;;;;5069799;28;20400;-61
2022/11/19 13:40:24;;;;;;;5.07;3.80;;;;;;;;;;5068918;28;20052;-61
2022/11/19 13:45:36;;;;;;;23.53;13.37;;;;;;;;;;5069386;28;20040;-62
2022/11/19 13:48:22;;;;;;;6.50;4.70;;;;;;;;;;5069639;28;20045;-61
2022/11/19 13:50:51;;;;;;;5.10;3.77;;;;;;;;;;5069319;28;20048;-61
2022/11/19 13:53:20;;;;;;;6.70;3.60;;;;;;;;;;5069561;28;20048;-61
2022/11/19 13:55:47;;;;;;;6.93;4.10;;;;;;;;;;5067891;28;20589;-61
2022/11/19 13:58:13;;;;;;;5.30;3.10;;;;;;;;;;5069428;28;20044;-61
2022/11/19 14:00:40;;;;;;;5.13;3.53;;;;;;;;;;5069527;28;20399;-61
2022/11/19 14:03:09;;;;;;;6.83;5.67;;;;;;;;;;5069451;28;20044;-61
2022/11/19 14:05:43;;;;;;;5.80;3.73;;;;;;;;;;5069083;28;20060;-61
2022/11/19 14:08:16;;;;;;;5.10;3.70;;;;;;;;;;5069821;28;20048;-61
2022/11/19 14:10:45;;;;;;;7.60;3.75;;;;;;;;;;5069632;28;20052;-61
2022/11/19 14:13:14;;;;;;;4.10;3.60;;;;;;;;;;5069449;28;20049;-61
2022/11/19 14:27:16;;;;;;;6.00;3.77;;;;;;;;;;5069240;28;20052;-61
2022/11/19 14:29:45;;;;;;;4.20;3.07;;;;;;;;;;5069095;28;20502;-61
2022/11/19 14:32:11;;;;;;;4.90;3.43;;;;;;;;;;5068760;28;20048;-61
2022/11/19 14:34:40;;;;;;;4.80;3.50;;;;;;;;;;5068881;28;20136;-61
2022/11/19 14:37:18;;;;;;;5.03;3.80;;;;;;;;;;5068819;28;20518;-61
2022/11/19 14:39:46;;;;;;;5.03;3.50;;;;;;;;;;5067811;28;20080;-61
2022/11/19 14:42:16;;;;;;;5.80;3.30;;;;;;;;;;5068693;28;20040;-61
2022/11/19 14:44:43;;;;;;;5.67;3.33;;;;;;;;;;5068827;28;20047;-61
2022/11/19 14:47:21;;;;;;;7.73;4.00;;;;;;;;;;5068231;28;20052;-61
2022/11/19 14:49:48;;;;;;;8.63;3.93;;;;;;;;;;5068879;28;20048;-61
2022/11/19 14:52:22;;;;;;;6.13;3.40;;;;;;;;;;5068769;28;20052;-61
2022/11/19 14:54:53;;;;;;;7.47;5.40;;;;;;;;;;5069056;28;20445;-60
2022/11/19 14:57:30;;;;;;;6.73;4.27;;;;;;;;;;5068545;28;20044;-61
2022/11/19 15:00:01;;;;;;;5.30;3.70;;;;;;;;;;5067880;28;20051;-61
2022/11/19 15:02:32;;;;;;;6.03;4.10;;;;;;;;;;5060462;28;20037;-61
2022/11/19 15:05:01;;;;;;;5.07;3.73;;;;;;;;;;5048730;28;20251;-61
2022/11/19 15:07:33;;;;;;;4.93;3.13;;;;;;;;;;5048366;28;20055;-61
2022/11/19 15:10:19;;;;;;;4.83;3.37;;;;;;;;;;5046389;28;20132;-61
2022/11/19 15:12:47;;;;;;;6.27;3.63;;;;;;;;;;5043957;28;20107;-61
2022/11/19 15:15:19;;;;;;;5.00;3.50;;;;;;;;;;5048244;28;20041;-61
2022/11/19 15:18:00;;;;;;;10.33;5.00;;;;;;;;;;5049446;28;20044;-61
2022/11/19 15:20:30;;;;;;;5.97;4.30;;;;;;;;;;5048276;28;20079;-61
2022/11/19 15:23:14;;;;;;;7.77;5.00;;;;;;;;;;5047855;28;20041;-60